Ringgold, Georgia
Current Conditions -  °F | °C
As of 2:53 AM on Monday 26 Jan 2015 (Local Time) from KCHA Reporting Station
Overcast Overcast  
Wind Chill: 43°   Ceiling: 2700
Heat Index: 47°   Visibility: 10mi
Dew Point: 39°   Wind: 8mph
Humidity: 74%   Direction: 260°W
Pressure: 29.73"   Gusts: NA
Location:  34.92°N, 85.11°W
Report Text: KCHA 260753Z AUTO 26007KT 10SM OVC027 08/04 A2973 RMK AO2 SLP066 T00830039 $
Loading
Personal Weather Stations






























Interactive Weather Map New forecast layout! Learn more

10-Day Weather Forecast

Advertisements
Track Severe Weather on mobile